Regional Weather

 

KMKL - Jackson, TN, USA
Distance from station: WNW 50mi, 81km
Updated: Sat, Jun-23-2018 5:53pm CDT
Clear
Clear
 Wind from SW
Wind: SW 7 mph , 11 km/h
Temperature: 88°F , 31°C
Heat Index: 96°F , 36°C
Dew Point: 73°F , 23°C
Humidity: 62%
Barometer: 29.80 inHg , 1009.1 hPa
Clouds: Clear
Visibility: 10 miles , 16 km
2018/06/23 22:53 KMKL 232253Z 22006KT 10SM CLR 31/23 A2980 RMK AO2 SLP086 T03110233 $
KMEM - Memphis, TN, USA
Distance from station: W 108mi, 173km
Updated: Sat, Jun-23-2018 5:54pm CDT
Few Clouds
Few Clouds
 Wind from SSW
Wind: SSW 16 mph , 26 km/h, Gust: 23 mph , 37 km/h
Temperature: 90°F , 32°C
Heat Index: 99°F , 37°C
Dew Point: 73°F , 23°C
Humidity: 59%
Barometer: 29.80 inHg , 1009.1 hPa
Clouds: Few Clouds
Visibility: 10 miles , 16 km
Cloud details: Few Clouds 5000 ft
Few Clouds 25000 ft
2018/06/23 22:54 KMEM 232254Z 21014G20KT 10SM FEW050 FEW250 32/23 A2980 RMK AO2 SLP086 T03220233 $
 
KBNA - Nashville, TN, USA
Distance from station: NE 97mi, 157km
Updated: Sat, Jun-23-2018 5:53pm CDT
Mostly cloudy
Mostly cloudy
 Wind from SW
Wind: SW 9 mph , 15 km/h
Temperature: 84°F , 29°C
Heat Index: 88°F , 31°C
Dew Point: 70°F , 21°C
Humidity: 62%
Barometer: 29.82 inHg , 1009.8 hPa
Clouds: Mostly cloudy
Visibility: 10 miles , 16 km
Cloud details: Partly cloudy 3100 ft
Mostly cloudy 3800 ft
Mostly cloudy 25000 ft
2018/06/23 22:53 KBNA 232253Z 23008KT 10SM SCT031 BKN038 BKN250 29/21 A2982 RMK A02 SLP092 T02940211
KCKV - Clarksville, TN, USA
Distance from station: NNE 99mi, 159km
Updated: Sat, Jun-23-2018 5:52pm CDT
Mostly cloudy
Mostly cloudy
 Wind from SSW
Wind: SSW 7 mph , 11 km/h
Temperature: 82°F , 28°C
Heat Index: 86°F , 30°C
Dew Point: 70°F , 21°C
Humidity: 66%
Barometer: 29.81 inHg , 1009.5 hPa
Clouds: Mostly cloudy
Visibility: 10 miles , 16 km
Cloud details: Few Clouds 2700 ft
Partly cloudy 4000 ft
Mostly cloudy 4900 ft
2018/06/23 22:52 KCKV 232252Z AUTO 20006KT 10SM FEW027 SCT040 BKN049 28/21 A2981 RMK AO2 SLP087 T02830206
 
KPAH - Paducah, KY, USA
Distance from station: NNW 128mi, 205km
Updated: Sat, Jun-23-2018 5:53pm CDT
Mostly cloudy
Mostly cloudy
 Wind from calm
Wind: Calm
Temperature: 82°F , 28°C
Heat Index: 87°F , 31°C
Dew Point: 73°F , 23°C
Humidity: 74%
Barometer: 29.77 inHg , 1008.1 hPa
Clouds: Mostly cloudy
Visibility: 10 miles , 16 km
Cloud details: Few Clouds 4400 ft
Mostly cloudy 5500 ft
2018/06/23 22:53 KPAH 232253Z 00000KT 10SM FEW044 BKN055 28/23 A2977 RMK AO2 RAB2155E19 SLP076 P0002 T02830233 $
KCHA - Chattanooga, TN, USA
Distance from station: E 165mi, 265km
Updated: Sat, Jun-23-2018 5:53pm CDT
Mostly cloudy
Mostly cloudy
 Wind from S
Wind: S 3 mph , 6 km/h
Temperature: 77°F , 25°C
Dew Point: 70°F , 21°C
Humidity: 79%
Barometer: 29.89 inHg , 1012.2 hPa
Clouds: Mostly cloudy
Visibility: 10 miles , 16 km
Cloud details: Few Clouds 2000 ft
Partly cloudy 10000 ft
Mostly cloudy 15000 ft
Mostly cloudy 19000 ft
2018/06/23 22:53 KCHA 232253Z 17003KT 10SM FEW020 SCT100 BKN150 BKN190 25/21 A2989 RMK AO2 SLP115 T02500211
 
KTYS - Knoxville, TN, USA
Distance from station: E 234mi, 377km
Updated: Sat, Jun-23-2018 5:53pm CDT
Mostly cloudy
Mostly cloudy
 Wind from SSW
Wind: SSW 17 mph , 28 km/h
Temperature: 75°F , 24°C
Dew Point: 66°F , 19°C
Humidity: 74%
Barometer: 29.88 inHg , 1011.9 hPa
Clouds: Mostly cloudy
Visibility: 10 miles , 16 km
Cloud details: Few Clouds 5000 ft
Few Clouds 15000 ft
Mostly cloudy 25000 ft
2018/06/23 22:53 KTYS 232253Z 21015KT 10SM FEW050 FEW150 BKN250 24/19 A2988 RMK AO2 SLP107 T02440189 $
KLIT - Little Rock, AR, USA
Distance from station: W 240mi, 386km
Updated: Sat, Jun-23-2018 5:53pm CDT
Partly cloudy
Partly cloudy
 Wind from S
Wind: S 5 mph , 7 km/h
Temperature: 88°F , 31°C
Heat Index: 95°F , 35°C
Dew Point: 72°F , 22°C
Humidity: 59%
Barometer: 29.80 inHg , 1009.1 hPa
Clouds: Partly cloudy
Visibility: 10 miles , 16 km
Cloud details: Few Clouds 5000 ft
Few Clouds 15000 ft
Partly cloudy 25000 ft
2018/06/23 22:53 KLIT 232253Z 17004KT 10SM FEW050 FEW150 SCT250 31/22 A2980 RMK AO2 SLP090 TCU DSNT SE T03060217 $

Refresh Page for latest data.